Time;durP1;ratioP1;P1;durP2;ratioP2;P2;SDS_P1;SDS_P2;PMS_P1;PMS_P2;Temp;Humidity;BMP_temperature;BMP_pressure;BME280_temperature;BME280_humidity;BME280_pressure;Samples;Min_cycle;Max_cycle;Signal;HPM_P1;HPM_P2
2021/12/06 00:01:24;;;;;;;13.75;5.32;;;1.70;99.90;;;;;;5109950;27;20082;-80
2021/12/06 00:03:56;;;;;;;8.75;6.28;;;1.60;99.90;;;;;;5086838;28;20036;-80
2021/12/06 00:06:25;;;;;;;7.57;5.55;;;1.70;99.90;;;;;;5089533;28;20062;-82
2021/12/06 00:08:51;;;;;;;5.68;5.15;;;1.70;99.90;;;;;;5088318;28;20116;-78
2021/12/06 00:11:17;;;;;;;;;;;2.40;99.90;;;;;;5087463;28;20051;-78
2021/12/06 00:13:45;;;;;;;9.10;5.60;;;1.60;99.90;;;;;;5121389;27;20786;-78
2021/12/06 00:16:17;;;;;;;8.07;4.60;;;1.70;99.90;;;;;;5089426;28;20040;-79
2021/12/06 00:18:44;;;;;;;6.05;4.13;;;1.80;99.90;;;;;;5088600;28;20052;-79
2021/12/06 00:21:10;;;;;;;10.05;5.95;;;1.70;99.90;;;;;;5086980;28;20048;-78
2021/12/06 00:23:37;;;;;;;6.88;3.90;;;1.60;99.90;;;;;;5026677;28;20063;-78
2021/12/06 00:26:03;;;;;;;4.40;4.00;;;1.70;99.90;;;;;;5103315;28;20053;-78
2021/12/06 00:28:29;;;;;;;7.30;6.60;;;1.60;99.90;;;;;;5086651;28;20083;-78
2021/12/06 00:30:55;;;;;;;8.57;5.90;;;1.60;99.90;;;;;;5085571;28;20477;-79
2021/12/06 00:33:22;;;;;;;7.28;5.35;;;1.80;99.90;;;;;;5090037;28;20500;-79
2021/12/06 00:35:49;;;;;;;6.72;5.05;;;1.70;99.90;;;;;;5089877;28;20143;-78
2021/12/06 00:38:14;;;;;;;;;;;1.70;99.90;;;;;;5098517;28;20082;-79
2021/12/06 00:40:47;;;;;;;10.10;6.90;;;1.70;99.90;;;;;;5090418;28;20277;-78
2021/12/06 00:43:13;;;;;;;11.30;5.90;;;1.70;99.90;;;;;;5094185;28;20036;-81
2021/12/06 00:45:39;;;;;;;7.68;5.68;;;1.70;99.90;;;;;;5122424;27;20101;-79
2021/12/06 00:48:05;;;;;;;6.55;4.72;;;1.70;99.90;;;;;;5092007;28;20052;-79
2021/12/06 00:50:34;;;;;;;5.18;3.60;;;1.70;99.90;;;;;;5092697;28;20044;-78
2021/12/06 00:53:00;;;;;;;14.65;7.15;;;1.70;99.90;;;;;;5083265;28;20045;-78
2021/12/06 00:55:26;;;;;;;10.48;5.75;;;1.70;99.90;;;;;;5088386;28;20033;-78
2021/12/06 00:57:53;;;;;;;5.78;4.65;;;1.70;99.90;;;;;;5109806;27;20044;-79
2021/12/06 01:00:30;;;;;;;5.63;5.15;;;1.90;99.90;;;;;;5120264;27;20073;-80
2021/12/06 01:02:56;;;;;;;;;;;1.70;99.90;;;;;;5126570;27;20043;-78
2021/12/06 01:05:23;;;;;;;13.43;5.65;;;1.90;99.90;;;;;;5092807;28;19916;-79
2021/12/06 01:07:53;;;;;;;8.63;4.95;;;1.80;99.90;;;;;;5093562;28;20048;-79
2021/12/06 01:10:24;;;;;;;6.78;5.40;;;1.70;99.90;;;;;;5093890;28;20628;-79
2021/12/06 01:12:50;;;;;;;6.13;4.63;;;1.70;99.90;;;;;;5092847;28;20062;-79
2021/12/06 01:15:17;;;;;;;9.90;5.75;;;1.70;99.90;;;;;;5092139;28;20047;-79
2021/12/06 01:17:44;;;;;;;11.20;6.55;;;1.70;99.90;;;;;;5092196;28;20043;-79
2021/12/06 01:20:12;;;;;;;8.35;5.65;;;1.70;99.90;;;;;;5093424;28;20546;-80
2021/12/06 01:22:53;;;;;;;7.53;5.57;;;1.70;99.90;;;;;;5127071;27;20044;-78
2021/12/06 01:41:07;;;;;;;7.40;5.22;;;1.70;99.90;;;;;;5093032;28;20036;-80
2021/12/06 01:43:33;;;;;;;9.23;5.05;;;1.80;99.90;;;;;;5109803;28;20115;-78
2021/12/06 01:45:59;;;;;;;10.98;4.93;;;1.70;99.90;;;;;;5090759;28;20036;-80
2021/12/06 01:48:25;;;;;;;7.50;5.07;;;1.90;99.90;;;;;;5092045;28;20058;-79
2021/12/06 01:50:51;;;;;;;15.25;5.63;;;1.70;99.90;;;;;;5091684;28;20457;-78
2021/12/06 01:53:17;;;;;;;7.60;5.28;;;1.70;99.90;;;;;;5091544;28;20032;-79
2021/12/06 01:55:42;;;;;;;;;;;1.70;99.90;;;;;;5093074;28;20036;-79
2021/12/06 01:58:08;;;;;;;6.30;3.95;;;1.70;99.90;;;;;;5091768;28;20053;-81
2021/12/06 02:00:44;;;;;;;10.93;6.07;;;1.70;99.90;;;;;;5075501;28;20477;-79
2021/12/06 02:03:10;;;;;;;12.60;6.00;;;1.70;99.90;;;;;;5091666;28;20470;-79
2021/12/06 02:05:38;;;;;;;10.25;6.57;;;1.70;99.90;;;;;;5094281;28;20177;-79
2021/12/06 02:08:06;;;;;;;11.82;6.85;;;1.70;99.90;;;;;;5075192;28;20051;-78
2021/12/06 02:10:32;;;;;;;5.75;4.47;;;1.70;99.90;;;;;;5121243;27;20036;-78
2021/12/06 02:12:58;;;;;;;13.05;5.05;;;1.70;99.90;;;;;;5089928;28;20493;-79
2021/12/06 02:18:13;;;;;;;7.50;6.78;;;1.80;99.90;;;;;;5090899;28;21878;-79
2021/12/06 02:20:47;;;;;;;14.85;6.60;;;2.10;99.90;;;;;;5092814;28;20078;-79
2021/12/06 02:23:14;;;;;;;13.25;8.57;;;1.70;99.90;;;;;;5089553;28;20032;-78
2021/12/06 02:25:40;;;;;;;16.52;6.63;;;1.70;99.90;;;;;;5125895;27;20039;-79
2021/12/06 02:28:06;;;;;;;13.23;5.45;;;1.70;99.90;;;;;;5100726;28;20082;-78
2021/12/06 02:30:31;;;;;;;6.45;5.07;;;1.70;99.90;;;;;;5108686;28;20047;-78
2021/12/06 02:32:57;;;;;;;10.77;5.05;;;1.70;99.90;;;;;;5084265;28;20043;-79
2021/12/06 02:35:24;;;;;;;14.38;5.85;;;1.70;99.90;;;;;;5090347;28;20036;-77
2021/12/06 02:37:51;;;;;;;7.50;6.47;;;1.70;99.90;;;;;;5091760;28;20068;-78
2021/12/06 02:40:22;;;;;;;6.03;4.95;;;1.60;99.90;;;;;;5091541;28;20040;-79
2021/12/06 02:42:48;;;;;;;7.32;6.68;;;1.70;99.90;;;;;;5075024;28;20031;-79
2021/12/06 02:45:18;;;;;;;10.10;6.32;;;1.50;99.90;;;;;;5084347;28;20040;-80
2021/12/06 02:47:46;;;;;;;13.75;7.47;;;1.60;99.90;;;;;;5091339;28;20101;-79
2021/12/06 02:50:12;;;;;;;10.98;5.70;;;1.60;99.90;;;;;;5084306;28;20056;-80
2021/12/06 02:52:40;;;;;;;13.55;5.30;;;1.70;99.90;;;;;;5127116;27;20063;-79
2021/12/06 02:55:24;;;;;;;10.43;5.05;;;1.60;99.90;;;;;;5126084;27;20059;-78
2021/12/06 02:57:55;;;;;;;13.93;7.18;;;1.60;99.90;;;;;;5091303;28;20063;-78
2021/12/06 03:00:21;;;;;;;14.40;6.78;;;1.60;99.90;;;;;;5109838;27;20048;-79
2021/12/06 03:02:47;;;;;;;9.77;7.18;;;1.70;99.90;;;;;;5082701;28;20040;-81
2021/12/06 03:05:13;;;;;;;13.68;5.78;;;1.70;99.90;;;;;;5093123;28;20032;-81
2021/12/06 03:07:39;;;;;;;13.93;6.13;;;1.70;99.90;;;;;;5075498;28;20039;-79
2021/12/06 03:10:08;;;;;;;;;;;1.70;99.90;;;;;;5087342;28;20059;-79
2021/12/06 03:12:35;;;;;;;8.70;5.78;;;1.60;99.90;;;;;;5088068;28;19915;-81
2021/12/06 03:15:03;;;;;;;6.80;5.75;;;1.70;99.90;;;;;;5072456;28;20054;-79
2021/12/06 03:17:31;;;;;;;11.23;5.35;;;1.60;99.90;;;;;;5074252;28;20035;-79
2021/12/06 03:19:59;;;;;;;12.73;6.85;;;1.60;99.90;;;;;;5091131;28;20051;-79
2021/12/06 03:22:25;;;;;;;15.80;6.03;;;1.70;99.90;;;;;;5057718;28;20040;-80
2021/12/06 03:24:51;;;;;;;8.75;5.90;;;1.70;99.90;;;;;;5125967;27;20040;-79
2021/12/06 03:27:18;;;;;;;10.23;6.07;;;1.70;99.90;;;;;;5074970;28;20039;-79
2021/12/06 03:29:44;;;;;;;13.75;8.20;;;1.70;99.90;;;;;;5073572;28;20060;-79
2021/12/06 03:32:10;;;;;;;;;;;1.60;99.90;;;;;;5088210;28;20508;-78
2021/12/06 03:34:36;;;;;;;7.38;4.63;;;2.10;99.90;;;;;;5091710;28;19923;-79
2021/12/06 03:37:04;;;;;;;5.57;4.93;;;1.70;99.90;;;;;;5091836;28;20393;-79
2021/12/06 03:39:43;;;;;;;13.63;5.47;;;1.70;99.90;;;;;;5089749;28;20075;-78
2021/12/06 03:42:12;;;;;;;11.23;7.43;;;3.10;99.90;;;;;;5091483;28;20051;-78
2021/12/06 03:44:38;;;;;;;7.40;4.32;;;1.70;99.90;;;;;;5089775;28;20428;-77
2021/12/06 03:47:10;;;;;;;13.23;8.82;;;1.70;99.90;;;;;;5106421;28;20040;-78
2021/12/06 03:49:36;;;;;;;14.15;5.38;;;1.70;99.90;;;;;;5090536;28;20131;-77
2021/12/06 03:52:04;;;;;;;13.70;7.05;;;1.70;99.90;;;;;;5088941;28;20083;-78
2021/12/06 03:54:31;;;;;;;17.70;6.40;;;1.70;99.90;;;;;;5090927;28;20055;-78
2021/12/06 03:56:57;;;;;;;11.18;6.03;;;2.50;99.90;;;;;;5090804;28;20043;-78
2021/12/06 03:59:24;;;;;;;14.05;4.95;;;1.70;99.90;;;;;;5087691;28;20071;-79
2021/12/06 04:01:50;;;;;;;11.30;5.72;;;1.80;99.90;;;;;;5073177;28;20032;-78
2021/12/06 04:04:17;;;;;;;9.13;6.05;;;2.80;99.90;;;;;;5073755;28;20122;-78
2021/12/06 04:06:43;;;;;;;9.40;7.10;;;1.90;99.90;;;;;;5107394;28;20048;-78
2021/12/06 04:09:10;;;;;;;10.32;5.70;;;1.80;99.90;;;;;;5091621;28;20046;-78
2021/12/06 04:11:37;;;;;;;9.57;5.90;;;1.80;99.90;;;;;;5072945;28;20047;-79
2021/12/06 04:14:04;;;;;;;10.30;8.00;;;1.80;99.90;;;;;;5118910;27;20050;-79
2021/12/06 04:16:30;;;;;;;10.73;6.05;;;1.80;99.90;;;;;;5081802;28;20063;-79
2021/12/06 04:18:56;;;;;;;;;;;1.80;99.90;;;;;;5087483;28;20386;-79
2021/12/06 04:21:23;;;;;;;5.45;4.45;;;1.80;99.90;;;;;;5086022;28;19942;-79
2021/12/06 04:23:49;;;;;;;9.65;5.47;;;1.80;99.90;;;;;;5117300;28;20064;-81
2021/12/06 04:26:15;;;;;;;14.73;6.13;;;1.80;99.90;;;;;;5090257;28;20054;-79
2021/12/06 04:28:47;;;;;;;15.25;5.30;;;1.80;99.90;;;;;;5091963;28;20073;-80
2021/12/06 04:31:14;;;;;;;9.75;6.18;;;1.80;99.90;;;;;;5089967;28;20052;-79
2021/12/06 04:33:40;;;;;;;13.57;5.50;;;1.90;99.90;;;;;;5093465;28;20097;-80
2021/12/06 04:36:06;;;;;;;8.27;6.10;;;1.80;99.90;;;;;;5056614;28;20039;-79
2021/12/06 04:38:31;;;;;;;6.95;5.80;;;1.90;99.90;;;;;;5093233;28;20028;-80
2021/12/06 04:40:57;;;;;;;14.30;6.80;;;1.80;99.90;;;;;;5122939;28;20527;-78
2021/12/06 04:43:23;;;;;;;9.00;4.88;;;1.80;99.90;;;;;;5083547;28;20464;-78
2021/12/06 04:45:49;;;;;;;12.45;6.53;;;1.90;99.90;;;;;;5086963;28;20063;-79
2021/12/06 04:48:15;;;;;;;8.57;6.43;;;1.90;99.90;;;;;;5091615;28;20055;-80
2021/12/06 04:50:42;;;;;;;13.82;7.93;;;1.90;99.90;;;;;;5072988;28;20095;-80
2021/12/06 04:53:18;;;;;;;15.18;7.22;;;1.90;99.90;;;;;;5124427;28;20493;-79
2021/12/06 04:56:18;;;;;;;13.50;8.07;;;1.90;99.90;;;;;;5090448;28;20040;-80
2021/12/06 04:59:15;;;;;;;9.00;6.13;;;1.90;99.90;;;;;;5123604;28;20405;-79
2021/12/06 05:01:41;;;;;;;11.00;6.63;;;1.90;99.90;;;;;;5113028;28;20048;-80
2021/12/06 05:04:12;;;;;;;17.45;8.32;;;1.90;99.90;;;;;;5087748;28;20461;-80
2021/12/06 05:06:42;;;;;;;10.50;6.88;;;1.90;99.90;;;;;;5085614;28;20055;-80
2021/12/06 05:09:16;;;;;;;13.43;5.93;;;1.90;99.90;;;;;;5085987;28;20053;-80
2021/12/06 05:11:43;;;;;;;10.13;8.48;;;1.90;99.90;;;;;;5066339;28;20123;-80
2021/12/06 05:14:09;;;;;;;12.40;7.40;;;1.90;99.90;;;;;;5118260;27;20487;-79
2021/12/06 05:16:36;;;;;;;;;;;2.00;99.90;;;;;;5085071;28;20071;-79
2021/12/06 05:19:03;;;;;;;13.68;6.93;;;1.90;99.90;;;;;;5087135;28;19924;-79
2021/12/06 05:21:29;;;;;;;11.68;7.88;;;1.90;99.90;;;;;;5089521;28;20040;-80
2021/12/06 05:23:55;;;;;;;8.27;6.32;;;1.90;99.90;;;;;;5090489;28;20039;-80
2021/12/06 05:26:21;;;;;;;12.55;6.47;;;1.90;99.90;;;;;;5075114;28;20044;-80
2021/12/06 05:28:48;;;;;;;15.95;7.15;;;1.90;99.90;;;;;;5095779;28;20184;-78
2021/12/06 05:31:18;;;;;;;11.38;7.35;;;1.90;99.90;;;;;;5093894;28;20059;-79
2021/12/06 05:33:56;;;;;;;17.15;6.88;;;1.90;99.90;;;;;;5093579;28;20058;-79
2021/12/06 05:36:22;;;;;;;7.15;4.75;;;2.10;99.90;;;;;;5127458;27;20535;-79
2021/12/06 05:38:52;;;;;;;11.80;7.63;;;1.90;99.90;;;;;;5126797;27;20101;-78
2021/12/06 05:41:18;;;;;;;18.85;7.43;;;1.90;99.90;;;;;;5094304;28;20040;-79
2021/12/06 05:43:44;;;;;;;10.98;5.82;;;1.90;99.90;;;;;;5096003;28;20500;-78
2021/12/06 05:46:10;;;;;;;12.20;7.25;;;1.90;99.90;;;;;;5109916;28;20447;-80
2021/12/06 05:48:36;;;;;;;13.70;5.15;;;1.90;99.90;;;;;;5083585;28;20051;-81
2021/12/06 05:51:02;;;;;;;;;;;1.90;99.90;;;;;;5093429;28;20044;-79
2021/12/06 05:53:28;;;;;;;18.70;7.60;;;1.90;99.90;;;;;;5092674;28;19923;-78
2021/12/06 05:55:54;;;;;;;17.27;7.25;;;1.90;99.90;;;;;;5093839;28;20483;-80
2021/12/06 05:58:26;;;;;;;16.25;6.32;;;1.90;99.90;;;;;;5092478;28;20048;-80
2021/12/06 06:00:54;;;;;;;10.05;7.22;;;1.90;99.90;;;;;;5093523;28;20047;-79
2021/12/06 06:03:19;;;;;;;11.35;6.82;;;1.90;99.90;;;;;;5124018;27;20054;-80
2021/12/06 06:05:45;;;;;;;10.45;5.57;;;1.90;99.90;;;;;;5093392;28;20118;-79
2021/12/06 06:08:11;;;;;;;11.40;6.97;;;1.90;99.90;;;;;;5091515;28;20119;-79
2021/12/06 06:10:37;;;;;;;11.15;6.30;;;1.90;99.90;;;;;;5093402;28;20036;-80
2021/12/06 06:13:04;;;;;;;14.32;6.25;;;1.90;99.90;;;;;;5092535;28;20081;-80
2021/12/06 06:15:30;;;;;;;13.85;8.55;;;1.90;99.90;;;;;;5084551;28;20056;-80
2021/12/06 06:18:02;;;;;;;11.73;6.65;;;1.90;99.90;;;;;;5092173;28;20044;-81
2021/12/06 06:20:34;;;;;;;12.15;6.50;;;1.90;99.90;;;;;;5126803;27;20040;-80
2021/12/06 06:22:59;;;;;;;10.48;8.00;;;1.90;99.90;;;;;;5091374;28;20071;-80
2021/12/06 06:25:25;;;;;;;11.02;6.50;;;1.90;99.90;;;;;;5070649;28;20048;-80
2021/12/06 06:27:51;;;;;;;16.63;5.93;;;1.90;99.90;;;;;;5092967;28;20040;-81
2021/12/06 06:30:17;;;;;;;11.38;5.72;;;1.90;99.90;;;;;;5093861;28;20047;-80
2021/12/06 06:32:44;;;;;;;9.68;4.57;;;1.90;99.90;;;;;;5092556;28;20516;-81
2021/12/06 06:35:11;;;;;;;5.25;4.68;;;1.90;99.90;;;;;;5092906;28;20051;-79
2021/12/06 06:37:37;;;;;;;11.73;8.88;;;1.90;99.90;;;;;;5075885;28;20051;-80
2021/12/06 06:40:04;;;;;;;9.60;5.65;;;1.90;99.90;;;;;;5076286;28;20043;-80
2021/12/06 06:42:30;;;;;;;7.80;6.75;;;1.90;99.90;;;;;;5136801;27;20067;-79
2021/12/06 06:44:56;;;;;;;16.83;8.68;;;1.90;99.90;;;;;;5100446;28;20075;-79
2021/12/06 06:47:23;;;;;;;14.23;6.80;;;1.90;99.90;;;;;;5092789;28;20090;-80
2021/12/06 06:49:49;;;;;;;11.27;6.50;;;1.90;99.90;;;;;;5093643;28;20489;-78
2021/12/06 06:52:15;;;;;;;12.77;6.75;;;1.80;99.90;;;;;;5092534;28;20044;-80
2021/12/06 06:54:41;;;;;;;9.50;4.53;;;1.80;99.90;;;;;;5094918;28;20426;-79
2021/12/06 06:57:08;;;;;;;8.80;4.50;;;1.80;99.90;;;;;;5092997;28;20044;-79
2021/12/06 06:59:33;;;;;;;9.70;7.50;;;1.80;99.90;;;;;;5093075;28;20068;-79
2021/12/06 07:01:59;;;;;;;13.23;6.47;;;1.80;99.90;;;;;;5116814;27;20095;-80
2021/12/06 07:04:25;;;;;;;19.20;7.07;;;2.00;99.90;;;;;;5088940;28;20477;-80
2021/12/06 07:06:51;;;;;;;9.18;4.97;;;1.80;99.90;;;;;;5110336;28;20043;-80
2021/12/06 07:09:17;;;;;;;5.72;5.15;;;1.80;99.90;;;;;;5092730;28;20068;-81
2021/12/06 07:11:45;;;;;;;6.72;5.95;;;1.80;99.90;;;;;;5093852;28;20400;-80
2021/12/06 07:14:12;;;;;;;11.30;6.28;;;1.80;99.90;;;;;;5102297;28;20045;-79
2021/12/06 07:16:38;;;;;;;12.60;6.40;;;1.80;99.90;;;;;;5063586;28;20127;-79
2021/12/06 07:19:04;;;;;;;9.60;5.03;;;1.80;99.90;;;;;;5070505;28;20135;-78
2021/12/06 07:21:30;;;;;;;10.15;4.55;;;2.20;99.90;;;;;;5070850;28;20051;-80
2021/12/06 07:23:55;;;;;;;;;;;1.80;99.90;;;;;;5092362;28;20044;-80
2021/12/06 07:26:22;;;;;;;24.17;5.57;;;2.00;99.90;;;;;;5091477;28;20005;-80
2021/12/06 07:28:51;;;;;;;8.52;5.28;;;1.80;99.90;;;;;;5090636;28;20477;-81
2021/12/06 07:31:18;;;;;;;10.82;4.55;;;1.80;99.90;;;;;;5065036;28;20127;-77
2021/12/06 07:33:45;;;;;;;16.05;7.13;;;2.00;99.90;;;;;;5081709;28;20036;-77
2021/12/06 07:36:11;;;;;;;12.32;5.35;;;1.80;99.90;;;;;;5068339;28;20130;-78
2021/12/06 07:38:38;;;;;;;9.07;6.93;;;1.80;99.90;;;;;;5102431;28;20048;-79
2021/12/06 07:41:11;;;;;;;14.00;7.38;;;1.90;99.90;;;;;;5105904;28;20085;-77
2021/12/06 07:43:37;;;;;;;21.50;7.32;;;1.90;99.90;;;;;;5072305;28;20044;-77
2021/12/06 07:46:04;;;;;;;12.95;6.97;;;2.30;99.90;;;;;;5087401;28;20092;-77
2021/12/06 07:48:30;;;;;;;22.20;5.60;;;2.90;99.90;;;;;;5106287;28;20044;-78
2021/12/06 07:50:56;;;;;;;8.45;5.47;;;2.10;99.90;;;;;;5048704;28;20039;-79
2021/12/06 07:53:22;;;;;;;;;;;1.80;99.90;;;;;;5069813;28;20028;-79
2021/12/06 07:55:48;;;;;;;11.02;5.95;;;1.80;99.90;;;;;;5069892;28;20372;-79
2021/12/06 07:58:14;;;;;;;5.15;4.75;;;2.40;99.90;;;;;;5063730;28;20040;-76
2021/12/06 08:00:44;;;;;;;9.90;5.53;;;1.80;99.90;;;;;;5085664;28;20552;-78
2021/12/06 08:03:11;;;;;;;13.98;5.07;;;1.90;99.90;;;;;;5059957;28;20449;-77
2021/12/06 08:05:40;;;;;;;15.93;6.80;;;1.90;99.90;;;;;;5086042;28;20040;-77
2021/12/06 08:08:23;;;;;;;11.13;6.32;;;1.80;99.90;;;;;;5103442;28;20110;-78
2021/12/06 08:10:52;;;;;;;11.20;7.82;;;2.40;99.90;;;;;;5088419;28;20040;-78
2021/12/06 08:13:22;;;;;;;8.80;5.47;;;1.90;99.90;;;;;;5099052;28;20523;-81
2021/12/06 08:15:50;;;;;;;9.82;4.93;;;2.40;99.90;;;;;;5120024;27;20186;-78
2021/12/06 08:18:16;;;;;;;8.20;4.68;;;1.90;99.90;;;;;;5085661;28;20439;-78
2021/12/06 08:20:44;;;;;;;10.43;6.35;;;1.90;99.90;;;;;;5054255;28;20085;-78
2021/12/06 08:23:12;;;;;;;12.55;5.50;;;1.90;99.90;;;;;;5117760;28;20420;-78
2021/12/06 08:25:46;;;;;;;9.07;5.85;;;1.90;99.90;;;;;;5065185;28;20112;-80
2021/12/06 08:28:14;;;;;;;11.18;7.22;;;2.10;99.90;;;;;;5084502;28;20040;-80
2021/12/06 08:30:51;;;;;;;11.70;8.02;;;2.00;99.90;;;;;;5088998;28;20024;-78
2021/12/06 08:33:17;;;;;;;7.20;5.50;;;1.90;99.90;;;;;;5090230;28;20123;-81
2021/12/06 08:35:46;;;;;;;;;;;2.50;99.90;;;;;;5126036;28;20040;-83
2021/12/06 08:38:21;;;;;;;13.18;8.43;;;1.90;99.90;;;;;;5084976;28;19916;-82
2021/12/06 08:40:48;;;;;;;7.70;5.47;;;1.90;99.90;;;;;;5057666;28;20401;-83
2021/12/06 08:43:17;;;;;;;10.20;7.10;;;1.90;99.90;;;;;;5106733;28;20036;-83
2021/12/06 08:46:00;;;;;;;8.82;6.10;;;2.20;99.90;;;;;;5091507;28;20048;-82
2021/12/06 08:48:30;;;;;;;10.95;6.65;;;2.00;99.90;;;;;;5082312;28;20044;-82
2021/12/06 08:50:59;;;;;;;11.07;6.53;;;2.00;99.90;;;;;;5075134;28;20043;-82
2021/12/06 08:53:25;;;;;;;13.32;6.15;;;2.00;99.90;;;;;;5123311;28;20070;-81
2021/12/06 08:55:52;;;;;;;10.10;5.72;;;2.00;99.90;;;;;;5072693;28;20106;-79
2021/12/06 08:58:18;;;;;;;13.82;8.32;;;2.80;99.90;;;;;;5065301;28;20048;-79
2021/12/06 09:00:44;;;;;;;6.43;4.43;;;2.10;99.90;;;;;;5070509;28;20116;-79
2021/12/06 09:03:10;;;;;;;10.80;7.22;;;2.10;99.90;;;;;;5094850;28;20093;-78
2021/12/06 09:05:41;;;;;;;8.07;4.88;;;2.10;99.90;;;;;;5093230;28;20048;-76
2021/12/06 09:08:08;;;;;;;24.08;7.75;;;2.10;99.90;;;;;;5125139;27;20043;-79
2021/12/06 09:10:35;;;;;;;13.20;6.80;;;2.90;99.90;;;;;;5108045;28;20040;-79
2021/12/06 09:13:01;;;;;;;10.13;6.60;;;3.10;99.90;;;;;;5083799;28;20043;-81
2021/12/06 09:15:28;;;;;;;6.53;5.50;;;2.50;99.90;;;;;;5112372;28;20080;-81
2021/12/06 09:17:55;;;;;;;29.77;7.35;;;2.30;99.90;;;;;;5074744;28;20044;-81
2021/12/06 09:20:25;;;;;;;13.93;8.23;;;2.30;99.90;;;;;;5096089;28;20190;-81
2021/12/06 09:22:51;;;;;;;6.45;5.13;;;2.40;99.90;;;;;;5099323;28;20040;-83
2021/12/06 09:25:19;;;;;;;16.08;6.15;;;2.40;99.90;;;;;;5085259;28;20016;-82
2021/12/06 09:27:46;;;;;;;14.05;5.18;;;2.40;99.90;;;;;;5096578;28;20044;-82
2021/12/06 09:30:16;;;;;;;13.45;5.68;;;2.40;99.90;;;;;;5060925;28;20381;-82
2021/12/06 09:32:43;;;;;;;14.90;5.95;;;2.40;99.90;;;;;;5086296;28;20078;-82
2021/12/06 09:35:20;;;;;;;8.68;4.63;;;2.40;99.90;;;;;;5079085;28;20540;-80
2021/12/06 09:37:47;;;;;;;5.65;5.13;;;2.40;99.90;;;;;;5074789;28;20074;-81
2021/12/06 09:40:30;;;;;;;10.60;5.68;;;2.50;99.90;;;;;;5077760;28;20069;-84
2021/12/06 09:42:58;;;;;;;11.27;7.65;;;1.90;99.90;;;;;;5066337;28;20053;-81
2021/12/06 09:45:28;;;;;;;8.45;4.88;;;2.70;99.90;;;;;;5059547;28;20040;-81
2021/12/06 09:47:54;;;;;;;5.13;3.97;;;2.60;99.90;;;;;;5106487;28;20508;-82
2021/12/06 09:50:31;;;;;;;9.80;5.45;;;2.60;99.90;;;;;;5094395;28;20493;-84
2021/12/06 09:53:01;;;;;;;15.30;7.50;;;3.00;99.90;;;;;;5076877;28;20051;-84
2021/12/06 09:55:33;;;;;;;9.65;6.15;;;4.40;99.90;;;;;;5091548;28;20039;-83
2021/12/06 09:58:01;;;;;;;12.00;6.72;;;2.70;99.90;;;;;;5095793;28;20055;-82
2021/12/06 10:00:31;;;;;;;7.25;6.30;;;2.70;99.90;;;;;;5091310;28;20089;-80
2021/12/06 10:02:57;;;;;;;9.68;5.75;;;2.60;99.90;;;;;;5066724;28;20069;-79
2021/12/06 10:05:29;;;;;;;6.10;5.68;;;4.10;99.90;;;;;;5091828;28;20460;-81
2021/12/06 10:07:55;;;;;;;9.85;4.47;;;2.70;99.90;;;;;;5067360;28;20044;-80
2021/12/06 10:10:22;;;;;;;8.98;7.00;;;2.60;99.90;;;;;;5056990;28;20059;-81
2021/12/06 10:12:52;;;;;;;10.50;5.68;;;2.70;99.90;;;;;;5092355;28;20044;-80
2021/12/06 10:15:19;;;;;;;16.45;7.40;;;2.60;99.90;;;;;;5092979;28;20079;-79
2021/12/06 10:17:45;;;;;;;7.97;4.45;;;3.90;99.90;;;;;;5071113;28;20040;-79
2021/12/06 10:20:12;;;;;;;11.18;6.68;;;2.60;99.90;;;;;;5109181;28;20074;-80
2021/12/06 10:22:38;;;;;;;4.72;2.92;;;2.60;99.90;;;;;;5065504;28;20118;-79
2021/12/06 10:25:05;;;;;;;;;;;2.70;99.90;;;;;;5091864;28;20032;-82
2021/12/06 10:27:31;;;;;;;7.53;5.13;;;2.70;99.90;;;;;;5092108;28;20489;-82
2021/12/06 10:30:08;;;;;;;4.65;4.22;;;2.80;99.90;;;;;;5059368;28;20036;-81
2021/12/06 10:32:38;;;;;;;8.70;6.00;;;2.70;99.90;;;;;;5074458;28;20032;-82
2021/12/06 10:35:10;;;;;;;10.02;3.97;;;2.70;99.90;;;;;;5074445;28;20044;-79
2021/12/06 10:37:45;;;;;;;9.35;4.00;;;2.70;99.90;;;;;;5086305;28;20098;-78
2021/12/06 10:40:23;;;;;;;10.55;6.90;;;2.80;99.90;;;;;;5123758;27;20504;-81
2021/12/06 10:42:52;;;;;;;9.70;5.65;;;2.80;99.90;;;;;;5125886;27;20119;-79
2021/12/06 10:45:27;;;;;;;13.38;6.00;;;2.70;99.90;;;;;;5090955;28;20489;-80
2021/12/06 10:48:14;;;;;;;7.85;4.40;;;2.80;99.90;;;;;;5073505;28;20119;-79
2021/12/06 10:50:50;;;;;;;10.30;5.80;;;2.80;99.90;;;;;;5083292;28;20401;-81
2021/12/06 10:53:19;;;;;;;9.93;5.22;;;2.80;99.90;;;;;;5126657;27;20051;-80
2021/12/06 10:55:47;;;;;;;9.05;4.97;;;2.80;99.90;;;;;;5083227;28;20097;-80
2021/12/06 10:58:23;;;;;;;19.55;5.13;;;2.80;99.90;;;;;;5098052;28;20040;-81
2021/12/06 11:01:20;;;;;;;12.65;6.45;;;3.90;99.90;;;;;;5104283;28;20040;-83
2021/12/06 11:03:50;;;;;;;12.77;6.00;;;2.80;99.90;;;;;;5106444;27;20089;-80
2021/12/06 11:06:31;;;;;;;4.78;4.38;;;4.20;99.90;;;;;;5090193;28;20423;-79
2021/12/06 11:09:00;;;;;;;10.80;5.78;;;2.70;99.90;;;;;;5092201;28;20181;-83
2021/12/06 11:11:30;;;;;;;11.68;6.63;;;2.80;99.90;;;;;;5075559;28;20130;-82
2021/12/06 11:14:06;;;;;;;17.05;6.20;;;2.90;99.90;;;;;;5093068;28;20050;-84
2021/12/06 11:16:57;;;;;;;10.88;5.65;;;2.90;99.90;;;;;;5107488;28;20081;-80
2021/12/06 11:19:24;;;;;;;6.93;5.07;;;2.80;99.90;;;;;;5106199;28;20409;-83
2021/12/06 11:22:02;;;;;;;5.72;3.33;;;3.60;99.90;;;;;;5091347;28;20177;-82
2021/12/06 11:24:39;;;;;;;12.18;6.78;;;2.70;99.90;;;;;;5087301;28;20376;-82
2021/12/06 11:27:27;;;;;;;7.25;5.28;;;2.70;99.90;;;;;;5087020;28;20040;-82
2021/12/06 11:30:03;;;;;;;5.43;3.85;;;2.70;99.90;;;;;;5090291;28;20476;-83
2021/12/06 11:32:54;;;;;;;5.57;4.30;;;2.70;99.90;;;;;;5099842;28;20048;-86
2021/12/06 11:35:24;;;;;;;5.63;3.65;;;2.70;99.90;;;;;;5108347;28;20036;-87
2021/12/06 11:37:59;;;;;;;10.55;5.00;;;4.20;99.90;;;;;;5056407;28;20093;-84
2021/12/06 11:41:09;;;;;;;13.85;7.18;;;2.60;99.90;;;;;;5094632;28;20413;-85
2021/12/06 11:43:43;;;;;;;7.95;6.30;;;3.20;99.90;;;;;;5099376;28;20043;-83
2021/12/06 11:46:10;;;;;;;19.00;10.45;;;4.30;99.90;;;;;;5126033;27;20039;-84
2021/12/06 11:48:39;;;;;;;6.25;5.38;;;2.80;99.90;;;;;;5083155;28;20040;-81
2021/12/06 11:51:18;;;;;;;12.95;6.57;;;2.80;99.90;;;;;;5094436;28;20043;-83
2021/12/06 11:53:52;;;;;;;7.15;6.53;;;2.80;99.90;;;;;;5098220;28;20098;-82
2021/12/06 11:56:23;;;;;;;10.80;6.88;;;2.80;99.90;;;;;;5108106;28;20047;-83
2021/12/06 11:58:56;;;;;;;15.80;7.10;;;2.80;99.90;;;;;;5073697;28;20048;-81
2021/12/06 12:01:26;;;;;;;7.85;4.88;;;2.90;99.90;;;;;;5091670;28;20418;-81
2021/12/06 12:04:05;;;;;;;7.90;4.18;;;3.90;99.90;;;;;;5125762;27;20047;-84
2021/12/06 12:06:36;;;;;;;10.73;5.78;;;4.00;99.90;;;;;;5075421;28;20036;-81
2021/12/06 12:09:28;;;;;;;6.80;5.22;;;3.00;99.90;;;;;;5091506;28;20098;-81
2021/12/06 12:12:08;;;;;;;10.65;5.93;;;3.50;99.90;;;;;;5072464;28;20067;-81
2021/12/06 12:14:40;;;;;;;7.68;6.13;;;4.30;99.90;;;;;;5080946;28;20493;-79
2021/12/06 12:17:09;;;;;;;4.75;3.28;;;3.00;99.90;;;;;;5103559;28;20566;-82
2021/12/06 12:19:35;;;;;;;5.45;4.15;;;3.10;99.90;;;;;;5083471;28;20374;-83
2021/12/06 12:22:17;;;;;;;4.25;3.40;;;3.60;99.90;;;;;;5047060;28;20041;-82
2021/12/06 12:24:47;;;;;;;12.40;4.72;;;3.20;99.90;;;;;;5052601;28;20041;-80
2021/12/06 12:29:56;;;;;;;8.43;5.07;;;4.00;99.90;;;;;;5056350;28;20051;-78
2021/12/06 12:32:22;;;;;;;12.48;6.00;;;3.30;99.90;;;;;;5045120;28;20045;-82
2021/12/06 12:34:50;;;;;;;7.70;4.90;;;3.20;99.90;;;;;;5041964;28;20512;-80
2021/12/06 12:37:18;;;;;;;8.30;4.50;;;3.20;99.90;;;;;;5040842;28;20502;-80
2021/12/06 12:40:02;;;;;;;7.03;3.75;;;4.60;99.90;;;;;;5056266;28;20048;-81
2021/12/06 12:42:28;;;;;;;6.20;3.53;;;3.10;99.90;;;;;;5027448;28;20075;-83
2021/12/06 12:44:57;;;;;;;9.70;5.63;;;3.10;99.90;;;;;;5055299;28;20040;-82
2021/12/06 12:47:34;;;;;;;7.35;5.20;;;3.10;99.90;;;;;;5072919;28;20140;-82
2021/12/06 12:50:14;;;;;;;11.75;5.15;;;3.10;99.90;;;;;;5039440;28;20361;-81
2021/12/06 12:52:49;;;;;;;11.23;5.28;;;3.10;99.90;;;;;;5063187;28;20131;-78
2021/12/06 12:55:44;;;;;;;4.45;3.33;;;3.20;99.90;;;;;;5076312;28;20054;-81
2021/12/06 12:58:13;;;;;;;7.60;3.97;;;3.10;99.90;;;;;;5108079;28;20036;-79
2021/12/06 13:00:57;;;;;;;10.20;5.88;;;4.90;99.90;;;;;;5125183;27;20076;-82
2021/12/06 13:03:41;;;;;;;10.68;4.18;;;3.60;99.90;;;;;;5129182;27;20036;-82
2021/12/06 13:06:14;;;;;;;6.93;5.20;;;3.00;99.90;;;;;;5084666;28;20051;-82
2021/12/06 13:08:40;;;;;;;7.80;4.07;;;3.00;99.90;;;;;;5127610;27;20059;-81
2021/12/06 13:11:07;;;;;;;9.20;5.43;;;3.00;99.90;;;;;;5078063;28;20070;-80
2021/12/06 13:13:44;;;;;;;12.02;3.47;;;3.00;99.90;;;;;;5075030;28;20137;-79
2021/12/06 13:16:37;;;;;;;14.63;4.63;;;3.00;99.90;;;;;;5101165;28;20108;-80
2021/12/06 13:19:10;;;;;;;6.97;4.80;;;3.10;99.90;;;;;;5109936;28;20477;-81
2021/12/06 13:21:48;;;;;;;11.90;6.20;;;3.00;99.90;;;;;;5112370;27;20063;-83
2021/12/06 13:24:15;;;;;;;6.35;5.28;;;3.00;99.90;;;;;;5110743;28;20036;-79
2021/12/06 13:26:47;;;;;;;6.47;4.18;;;4.20;99.90;;;;;;5093099;28;20048;-82
2021/12/06 13:29:23;;;;;;;10.93;6.30;;;3.10;99.90;;;;;;5077067;28;20047;-81